Time;durP1;ratioP1;P1;durP2;ratioP2;P2;SDS_P1;SDS_P2;PMS_P1;PMS_P2;Temp;Humidity;BMP_temperature;BMP_pressure;BME280_temperature;BME280_humidity;BME280_pressure;Samples;Min_cycle;Max_cycle;Signal;HPM_P1;HPM_P2
2021/04/16 00:00:55;;;;;;;2.80;2.07;;;5.10;99.90;;;;;;5040278;28;20207;-82
2021/04/16 00:03:22;;;;;;;3.13;2.20;;;5.20;99.90;;;;;;5041291;28;20228;-82
2021/04/16 00:05:49;;;;;;;3.93;2.03;;;5.10;99.90;;;;;;5043654;28;20225;-81
2021/04/16 00:08:19;;;;;;;4.97;2.50;;;5.10;99.90;;;;;;5045034;28;20206;-82
2021/04/16 00:10:49;;;;;;;2.00;1.80;;;5.30;99.90;;;;;;5047337;28;20194;-82
2021/04/16 00:13:18;;;;;;;3.60;2.23;;;5.40;99.90;;;;;;5045881;28;20288;-82
2021/04/16 00:15:46;;;;;;;4.07;2.10;;;5.40;99.90;;;;;;5047639;28;20211;-81
2021/04/16 00:18:27;;;;;;;4.13;1.97;;;5.50;99.90;;;;;;5044912;28;20264;-82
2021/04/16 00:20:54;;;;;;;3.37;1.87;;;5.50;99.90;;;;;;5043481;28;20232;-81
2021/04/16 00:23:20;;;;;;;3.03;2.00;;;5.50;99.90;;;;;;5046215;28;20603;-81
2021/04/16 00:25:47;;;;;;;3.80;2.00;;;5.40;99.90;;;;;;5045343;28;20227;-82
2021/04/16 00:28:14;;;;;;;3.37;1.90;;;5.30;99.90;;;;;;5054639;28;20207;-81
2021/04/16 00:30:43;;;;;;;2.57;1.67;;;5.40;99.90;;;;;;5046222;28;20210;-81
2021/04/16 00:33:11;;;;;;;4.30;2.53;;;5.50;99.90;;;;;;5049461;28;20314;-82
2021/04/16 00:35:38;;;;;;;3.60;2.50;;;5.50;99.90;;;;;;5056665;28;20628;-81
2021/04/16 00:38:06;;;;;;;2.13;1.83;;;5.60;99.90;;;;;;5056942;28;20613;-81
2021/04/16 00:40:36;;;;;;;3.60;1.80;;;5.50;99.90;;;;;;5040242;28;20565;-82
2021/04/16 00:43:03;;;;;;;3.40;1.90;;;5.60;99.90;;;;;;5047754;28;20291;-82
2021/04/16 00:45:32;;;;;;;2.53;1.90;;;5.70;99.90;;;;;;5049287;28;20692;-81
2021/04/16 00:48:01;;;;;;;3.33;1.70;;;5.70;99.90;;;;;;5046903;28;20206;-81
2021/04/16 00:50:34;;;;;;;3.40;2.10;;;5.70;99.90;;;;;;5054511;28;20205;-82
2021/04/16 00:53:01;;;;;;;4.77;1.70;;;5.70;99.90;;;;;;5043997;28;20679;-82
2021/04/16 00:55:28;;;;;;;2.40;2.10;;;5.60;99.90;;;;;;5051821;28;20203;-81
2021/04/16 00:57:54;;;;;;;3.80;1.80;;;5.60;99.90;;;;;;5056483;28;20207;-81
2021/04/16 01:00:23;;;;;;;3.53;2.20;;;5.60;99.90;;;;;;5056407;28;20199;-82
2021/04/16 01:02:49;;;;;;;3.20;1.73;;;5.60;99.90;;;;;;5051526;28;20225;-81
2021/04/16 01:05:16;;;;;;;3.70;2.03;;;5.60;99.90;;;;;;5052688;28;20227;-81
2021/04/16 01:07:44;;;;;;;2.77;1.93;;;5.50;99.90;;;;;;5054341;28;20271;-82
2021/04/16 01:10:12;;;;;;;3.10;2.10;;;5.40;99.90;;;;;;5043509;28;20206;-82
2021/04/16 01:12:39;;;;;;;2.73;1.67;;;5.30;99.90;;;;;;5046420;28;20706;-81
2021/04/16 01:15:16;;;;;;;2.80;1.80;;;5.30;99.90;;;;;;5043034;28;20214;-81
2021/04/16 01:17:44;;;;;;;3.90;1.60;;;5.30;99.90;;;;;;5039926;28;20286;-82
2021/04/16 01:20:15;;;;;;;3.07;1.90;;;5.30;99.90;;;;;;5054497;28;20195;-81
2021/04/16 01:22:50;;;;;;;2.70;2.10;;;5.40;99.90;;;;;;5048373;28;20241;-81
2021/04/16 01:25:19;;;;;;;2.80;2.10;;;5.40;99.90;;;;;;5046013;28;20289;-81
2021/04/16 01:27:45;;;;;;;3.30;2.07;;;5.40;99.90;;;;;;5054762;28;20230;-81
2021/04/16 01:30:15;;;;;;;2.70;1.93;;;5.30;99.90;;;;;;5051604;28;20213;-81
2021/04/16 01:32:41;;;;;;;4.00;1.87;;;5.30;99.90;;;;;;5050372;28;20227;-81
2021/04/16 01:35:10;;;;;;;3.80;2.17;;;5.30;99.90;;;;;;5051176;28;20714;-81
2021/04/16 01:37:37;;;;;;;2.33;1.93;;;5.20;99.90;;;;;;5048754;28;20233;-81
2021/04/16 01:40:04;;;;;;;2.47;2.10;;;5.10;99.90;;;;;;5052418;28;20218;-81
2021/04/16 01:42:32;;;;;;;2.87;2.30;;;5.10;99.90;;;;;;5042227;28;20223;-81
2021/04/16 01:44:58;;;;;;;3.23;1.83;;;5.00;99.90;;;;;;5036577;28;20575;-81
2021/04/16 01:47:24;;;;;;;4.50;1.80;;;5.00;99.90;;;;;;5050006;28;20631;-81
2021/04/16 01:49:52;;;;;;;4.93;2.30;;;5.00;99.90;;;;;;5053447;28;20203;-81
2021/04/16 01:52:21;;;;;;;4.03;2.17;;;4.80;99.90;;;;;;5051577;28;20227;-81
2021/04/16 01:54:50;;;;;;;2.43;2.03;;;4.70;99.90;;;;;;5046543;28;20214;-81
2021/04/16 01:57:19;;;;;;;3.67;2.00;;;4.70;99.90;;;;;;5052380;28;20211;-81
2021/04/16 01:59:48;;;;;;;4.00;2.03;;;4.80;99.90;;;;;;5041342;28;20651;-81
2021/04/16 02:02:21;;;;;;;2.53;1.90;;;4.80;99.90;;;;;;5038398;28;20223;-81
2021/04/16 02:04:48;;;;;;;3.13;2.10;;;4.80;99.90;;;;;;5051783;28;20645;-81
2021/04/16 02:07:15;;;;;;;2.67;2.27;;;4.70;99.90;;;;;;5054157;28;20285;-81
2021/04/16 02:09:42;;;;;;;3.70;2.20;;;4.60;99.90;;;;;;5054681;28;20203;-82
2021/04/16 02:12:10;;;;;;;3.53;1.83;;;4.40;99.90;;;;;;5047028;28;20235;-81
2021/04/16 02:14:37;;;;;;;3.23;2.10;;;4.30;99.90;;;;;;5049176;28;20199;-81
2021/04/16 02:17:08;;;;;;;3.53;2.17;;;4.40;99.90;;;;;;5053104;28;20681;-81
2021/04/16 02:19:35;;;;;;;3.13;2.07;;;4.50;99.90;;;;;;5056048;28;20203;-81
2021/04/16 02:22:01;;;;;;;2.73;2.10;;;4.60;99.90;;;;;;5049268;28;20221;-81
2021/04/16 02:24:28;;;;;;;4.67;2.57;;;4.30;99.90;;;;;;5048743;28;20687;-81
2021/04/16 02:26:54;;;;;;;4.50;2.33;;;4.40;99.90;;;;;;5050856;28;20195;-80
2021/04/16 02:29:21;;;;;;;3.80;2.13;;;4.50;99.90;;;;;;5052874;28;20636;-80
2021/04/16 02:31:48;;;;;;;4.70;2.37;;;4.60;99.90;;;;;;5058147;28;20650;-80
2021/04/16 02:34:17;;;;;;;2.57;2.00;;;4.50;99.90;;;;;;5058992;28;20712;-80
2021/04/16 02:36:43;;;;;;;3.10;2.37;;;4.30;99.90;;;;;;5059982;28;20582;-80
2021/04/16 02:39:10;;;;;;;2.57;2.10;;;4.40;99.90;;;;;;5056473;28;20331;-80
2021/04/16 02:41:36;;;;;;;3.90;2.37;;;4.50;99.90;;;;;;5054753;28;20225;-80
2021/04/16 02:44:05;;;;;;;4.30;2.20;;;4.60;99.90;;;;;;5058464;28;20512;-80
2021/04/16 02:46:31;;;;;;;3.33;2.43;;;4.60;99.90;;;;;;5051847;28;20211;-80
2021/04/16 02:48:58;;;;;;;3.00;2.23;;;4.70;99.90;;;;;;5058415;28;20195;-80
2021/04/16 02:51:25;;;;;;;3.13;2.23;;;4.70;99.90;;;;;;5053097;28;20286;-80
2021/04/16 02:53:51;;;;;;;2.80;1.93;;;4.70;99.90;;;;;;5057854;28;20203;-80
2021/04/16 02:56:17;;;;;;;3.47;2.17;;;4.70;99.90;;;;;;5055570;28;20245;-80
2021/04/16 02:58:44;;;;;;;2.40;1.93;;;4.70;99.90;;;;;;5054064;28;20199;-81
2021/04/16 03:01:10;;;;;;;4.00;2.10;;;4.70;99.90;;;;;;5054145;28;20546;-80
2021/04/16 03:03:36;;;;;;;3.10;2.20;;;4.70;99.90;;;;;;5055073;28;20225;-80
2021/04/16 03:06:04;;;;;;;3.03;2.33;;;4.60;99.90;;;;;;5056977;28;20219;-80
2021/04/16 03:08:31;;;;;;;3.10;2.40;;;4.60;99.90;;;;;;5051306;28;20209;-80
2021/04/16 03:10:58;;;;;;;4.70;2.50;;;4.60;99.90;;;;;;5051909;28;20199;-80
2021/04/16 03:13:24;;;;;;;3.53;2.40;;;4.60;99.90;;;;;;5052370;28;20223;-80
2021/04/16 03:15:51;;;;;;;3.87;2.60;;;4.50;99.90;;;;;;5052610;28;20199;-80
2021/04/16 03:18:17;;;;;;;3.30;2.20;;;4.60;99.90;;;;;;5053831;28;20207;-80
2021/04/16 03:20:44;;;;;;;2.57;2.07;;;4.70;99.90;;;;;;5042052;28;20295;-80
2021/04/16 03:23:11;;;;;;;3.13;2.23;;;4.60;99.90;;;;;;5052234;28;20223;-80
2021/04/16 03:25:38;;;;;;;2.53;1.87;;;4.60;99.90;;;;;;5054721;28;20219;-80
2021/04/16 03:28:06;;;;;;;4.37;2.47;;;4.60;99.90;;;;;;5054950;28;20222;-80
2021/04/16 03:30:33;;;;;;;5.77;2.23;;;4.60;99.90;;;;;;5053497;28;20256;-80
2021/04/16 03:33:00;;;;;;;4.00;3.00;;;4.60;99.90;;;;;;5049149;28;20309;-80
2021/04/16 03:35:26;;;;;;;4.13;2.67;;;4.60;99.90;;;;;;5051522;28;20203;-80
2021/04/16 03:37:53;;;;;;;3.33;2.43;;;4.70;99.90;;;;;;5047329;28;20204;-80
2021/04/16 03:40:22;;;;;;;3.20;2.40;;;4.50;99.90;;;;;;5051825;28;20203;-80
2021/04/16 03:42:50;;;;;;;4.03;2.50;;;4.60;99.90;;;;;;5046974;28;20298;-80
2021/04/16 03:45:17;;;;;;;4.30;2.50;;;4.60;99.90;;;;;;5051721;28;20237;-80
2021/04/16 03:47:45;;;;;;;4.47;2.47;;;4.50;99.90;;;;;;5055925;28;20203;-80
2021/04/16 03:50:12;;;;;;;3.07;2.20;;;4.50;99.90;;;;;;5059021;28;20207;-80
2021/04/16 03:52:38;;;;;;;4.00;2.50;;;4.40;99.90;;;;;;5051695;28;20223;-80
2021/04/16 03:55:06;;;;;;;4.87;2.60;;;4.30;99.90;;;;;;5055011;28;20206;-80
2021/04/16 03:57:33;;;;;;;3.67;2.60;;;4.40;99.90;;;;;;5051837;28;20287;-80
2021/04/16 04:00:01;;;;;;;4.43;2.77;;;4.50;99.90;;;;;;5058314;28;20214;-80
2021/04/16 04:02:27;;;;;;;3.70;2.83;;;4.50;99.90;;;;;;5055966;28;20285;-80
2021/04/16 04:04:53;;;;;;;6.13;2.70;;;4.40;99.90;;;;;;5058089;28;20225;-80
2021/04/16 04:07:20;;;;;;;3.67;2.67;;;4.50;99.90;;;;;;5053881;28;20699;-80
2021/04/16 04:09:46;;;;;;;3.03;2.30;;;4.60;99.90;;;;;;5056989;28;20282;-80
2021/04/16 04:12:13;;;;;;;3.40;2.33;;;4.70;99.90;;;;;;5050309;28;20321;-80
2021/04/16 04:14:39;;;;;;;3.20;2.47;;;4.90;99.90;;;;;;5049903;28;20274;-80
2021/04/16 04:17:07;;;;;;;4.77;2.23;;;4.90;99.90;;;;;;5055488;28;20286;-81
2021/04/16 04:19:35;;;;;;;2.83;2.20;;;5.00;99.90;;;;;;5057225;28;20289;-80
2021/04/16 04:22:03;;;;;;;2.47;2.20;;;5.00;99.90;;;;;;5055730;28;20229;-80
2021/04/16 04:24:29;;;;;;;3.23;2.47;;;5.00;99.90;;;;;;5045495;28;20226;-80
2021/04/16 04:26:56;;;;;;;3.00;2.47;;;5.00;99.90;;;;;;5049759;28;20206;-80
2021/04/16 04:29:26;;;;;;;3.87;2.70;;;5.00;99.90;;;;;;5055247;28;20205;-80
2021/04/16 04:31:52;;;;;;;2.83;2.33;;;5.00;99.90;;;;;;5052282;28;20235;-80
2021/04/16 04:34:22;;;;;;;4.10;2.50;;;5.00;99.90;;;;;;5054412;28;20294;-80
2021/04/16 04:36:51;;;;;;;2.50;2.07;;;5.00;99.90;;;;;;5051068;28;20545;-80
2021/04/16 04:39:19;;;;;;;5.93;2.40;;;5.00;99.90;;;;;;5043706;28;20207;-81
2021/04/16 04:41:45;;;;;;;5.97;2.40;;;5.00;99.90;;;;;;5049956;28;20239;-80
2021/04/16 04:44:13;;;;;;;4.47;2.20;;;5.00;99.90;;;;;;5056749;28;20207;-80
2021/04/16 04:46:40;;;;;;;4.57;2.60;;;5.00;99.90;;;;;;5060459;28;20202;-79
2021/04/16 04:49:08;;;;;;;4.33;2.30;;;5.10;99.90;;;;;;5057287;28;20206;-80
2021/04/16 04:51:37;;;;;;;6.03;2.80;;;5.10;99.90;;;;;;5057147;28;20195;-80
2021/04/16 04:54:04;;;;;;;4.83;2.43;;;5.00;99.90;;;;;;5062349;28;20204;-80
2021/04/16 04:56:30;;;;;;;6.50;2.63;;;5.10;99.90;;;;;;5061218;28;20195;-80
2021/04/16 04:58:57;;;;;;;5.80;2.90;;;5.10;99.90;;;;;;5060764;28;20195;-80
2021/04/16 05:01:23;;;;;;;4.40;2.77;;;5.10;99.90;;;;;;5061689;28;20203;-81
2021/04/16 05:03:49;;;;;;;5.33;2.50;;;5.20;99.90;;;;;;5050532;28;20305;-80
2021/04/16 05:06:15;;;;;;;3.87;2.30;;;5.20;99.90;;;;;;5060024;28;20227;-81
2021/04/16 05:08:43;;;;;;;3.60;2.50;;;5.20;99.90;;;;;;5047873;28;20686;-80
2021/04/16 05:11:11;;;;;;;3.00;2.40;;;5.10;99.90;;;;;;5061479;28;20655;-80
2021/04/16 05:13:37;;;;;;;5.47;2.73;;;5.20;99.90;;;;;;5059295;28;20318;-80
2021/04/16 05:16:05;;;;;;;4.67;2.77;;;5.30;99.90;;;;;;5055323;28;20211;-81
2021/04/16 05:18:31;;;;;;;2.83;2.37;;;5.40;99.90;;;;;;5055041;28;20203;-80
2021/04/16 05:20:57;;;;;;;4.93;2.80;;;5.50;99.90;;;;;;5061408;28;20306;-80
2021/04/16 05:23:24;;;;;;;4.63;2.80;;;5.50;99.90;;;;;;5053893;28;20302;-80
2021/04/16 05:25:51;;;;;;;5.87;2.80;;;5.70;99.90;;;;;;5061058;28;20728;-80
2021/04/16 05:28:17;;;;;;;7.87;3.00;;;5.70;99.90;;;;;;5060383;28;20214;-80
2021/04/16 05:30:43;;;;;;;11.23;4.77;;;5.70;99.90;;;;;;5059248;28;20231;-80
2021/04/16 05:33:10;;;;;;;7.27;3.93;;;5.80;99.90;;;;;;5061029;28;20259;-81
2021/04/16 05:35:36;;;;;;;5.13;3.13;;;6.00;99.90;;;;;;5051246;28;20259;-81
2021/04/16 05:38:02;;;;;;;5.70;3.23;;;5.90;99.90;;;;;;5063121;28;20203;-80
2021/04/16 05:40:29;;;;;;;5.60;3.20;;;5.90;99.90;;;;;;5053718;28;20293;-81
2021/04/16 05:42:57;;;;;;;6.60;3.83;;;6.10;99.90;;;;;;5053482;28;20774;-81
2021/04/16 05:45:24;;;;;;;3.70;2.77;;;6.70;99.90;;;;;;5049808;28;20234;-80
2021/04/16 05:47:50;;;;;;;5.00;3.20;;;6.60;99.90;;;;;;5057507;28;20199;-81
2021/04/16 05:50:18;;;;;;;7.50;3.33;;;6.40;99.90;;;;;;5060473;28;20706;-81
2021/04/16 05:52:44;;;;;;;7.70;3.13;;;6.50;99.90;;;;;;5054685;28;20246;-80
2021/04/16 05:55:11;;;;;;;7.20;3.30;;;6.40;99.90;;;;;;5059579;28;20199;-81
2021/04/16 05:57:38;;;;;;;6.83;3.20;;;6.30;99.90;;;;;;5055955;28;20214;-81
2021/04/16 06:00:07;;;;;;;5.63;3.40;;;6.40;99.90;;;;;;5054598;28;20289;-81
2021/04/16 06:02:36;;;;;;;5.40;3.10;;;6.20;99.90;;;;;;5063679;28;20237;-80
2021/04/16 06:05:05;;;;;;;6.47;3.30;;;6.20;99.90;;;;;;5061928;28;20223;-80
2021/04/16 06:07:32;;;;;;;4.60;3.23;;;6.20;99.90;;;;;;5049316;22;20640;-64
2021/04/16 06:09:58;;;;;;;5.43;3.37;;;6.30;99.90;;;;;;5027683;28;20338;-65
2021/04/16 06:12:25;;;;;;;8.07;3.83;;;6.30;99.90;;;;;;5028822;28;20334;-65
2021/04/16 06:14:51;;;;;;;5.33;3.27;;;6.20;99.90;;;;;;5032701;28;20202;-65
2021/04/16 06:17:20;;;;;;;4.23;3.10;;;6.10;99.90;;;;;;5030928;28;20593;-65
2021/04/16 06:19:49;;;;;;;9.43;3.70;;;6.10;99.90;;;;;;5028954;28;20287;-65
2021/04/16 06:22:16;;;;;;;6.07;3.77;;;6.20;99.90;;;;;;5028510;28;20208;-65
2021/04/16 06:24:42;;;;;;;5.53;3.57;;;6.10;99.90;;;;;;5029587;28;20216;-65
2021/04/16 06:27:08;;;;;;;6.23;3.37;;;6.10;99.90;;;;;;5032508;28;20258;-65
2021/04/16 06:29:35;;;;;;;8.80;3.87;;;6.20;99.90;;;;;;5033054;28;20642;-65
2021/04/16 06:32:01;;;;;;;5.93;3.20;;;6.30;99.90;;;;;;5033224;28;20204;-65
2021/04/16 06:34:29;;;;;;;9.60;3.80;;;6.30;99.90;;;;;;5032366;28;20200;-65
2021/04/16 06:36:55;;;;;;;5.73;3.60;;;6.30;99.90;;;;;;5027319;28;20556;-65
2021/04/16 06:39:22;;;;;;;8.10;3.77;;;6.40;99.90;;;;;;5032827;28;20218;-65
2021/04/16 06:41:50;;;;;;;7.30;3.80;;;6.50;99.90;;;;;;5032327;28;20646;-65
2021/04/16 06:44:22;;;;;;;5.53;3.20;;;6.80;99.90;;;;;;5032601;28;20207;-65
2021/04/16 06:46:51;;;;;;;10.73;4.73;;;6.80;99.90;;;;;;5030226;28;20224;-64
2021/04/16 06:49:23;;;;;;;7.53;3.80;;;7.50;99.90;;;;;;5030717;28;20666;-65
2021/04/16 06:52:02;;;;;;;7.40;3.53;;;7.90;99.90;;;;;;5032344;28;20212;-64
2021/04/16 06:54:37;;;;;;;7.53;3.97;;;7.90;99.90;;;;;;5032200;28;20204;-65
2021/04/16 06:57:21;;;;;;;7.70;3.90;;;8.00;99.90;;;;;;5032510;28;20200;-64
2021/04/16 06:59:54;;;;;;;6.80;3.57;;;8.00;99.90;;;;;;5032291;28;20203;-65
2021/04/16 07:02:33;;;;;;;6.97;3.50;;;7.70;99.90;;;;;;5026596;28;20310;-65
2021/04/16 07:05:00;;;;;;;8.00;3.47;;;7.80;99.90;;;;;;5029549;28;20277;-64
2021/04/16 07:07:33;;;;;;;7.50;3.77;;;7.50;99.90;;;;;;5024236;28;20223;-64
2021/04/16 07:10:03;;;;;;;6.67;3.67;;;7.50;99.90;;;;;;5028786;28;20577;-64
2021/04/16 07:12:30;;;;;;;7.83;4.10;;;7.30;99.90;;;;;;5031593;28;20658;-64
2021/04/16 07:15:01;;;;;;;7.00;3.50;;;7.50;99.90;;;;;;5030305;28;20203;-64
2021/04/16 07:17:37;;;;;;;6.83;3.40;;;7.50;99.90;;;;;;5031267;28;20207;-65
2021/04/16 07:20:05;;;;;;;7.20;4.20;;;7.40;99.90;;;;;;5026289;28;20604;-65
2021/04/16 07:22:40;;;;;;;7.27;3.50;;;7.40;99.90;;;;;;5029310;28;20199;-65
2021/04/16 07:25:24;;;;;;;7.70;3.87;;;7.60;99.90;;;;;;5031788;28;20689;-65
2021/04/16 07:27:52;;;;;;;7.67;4.03;;;7.50;99.90;;;;;;5027966;28;20204;-64
2021/04/16 07:30:31;;;;;;;8.50;4.50;;;7.70;99.90;;;;;;5028507;28;20207;-64
2021/04/16 07:32:59;;;;;;;6.00;3.53;;;7.90;99.90;;;;;;5031806;28;20199;-64
2021/04/16 07:35:28;;;;;;;10.43;4.50;;;8.00;99.90;;;;;;5029861;28;20203;-65
2021/04/16 07:38:04;;;;;;;9.27;4.53;;;8.10;99.90;;;;;;5029051;28;20580;-65
2021/04/16 07:40:34;;;;;;;7.07;4.50;;;8.10;99.90;;;;;;5031225;28;20593;-65
2021/04/16 07:43:01;;;;;;;5.67;4.23;;;8.20;99.90;;;;;;5028227;28;20673;-64
2021/04/16 07:45:43;;;;;;;8.13;3.90;;;8.20;99.90;;;;;;5028074;28;20234;-64
2021/04/16 07:48:32;;;;;;;6.60;3.27;;;8.20;99.90;;;;;;5028324;28;20206;-64
2021/04/16 07:51:01;;;;;;;9.67;3.50;;;8.40;99.90;;;;;;5022071;28;20237;-64
2021/04/16 07:53:37;;;;;;;5.23;2.87;;;8.30;99.90;;;;;;5026815;28;20234;-64
2021/04/16 07:56:07;;;;;;;3.87;2.77;;;8.30;99.90;;;;;;5028545;28;20737;-65
2021/04/16 07:58:33;;;;;;;7.10;2.70;;;8.50;99.90;;;;;;5030416;28;20241;-64
2021/04/16 08:01:11;;;;;;;4.47;2.83;;;8.50;99.90;;;;;;5029739;28;20704;-64
2021/04/16 08:03:45;;;;;;;4.40;2.50;;;8.90;99.90;;;;;;5029810;28;20204;-64
2021/04/16 08:06:28;;;;;;;4.57;2.57;;;9.20;99.90;;;;;;5031277;28;20278;-64
2021/04/16 08:08:56;;;;;;;3.97;2.60;;;9.00;99.90;;;;;;5025336;28;20199;-65
2021/04/16 08:11:26;;;;;;;5.10;2.50;;;9.10;99.90;;;;;;5019688;28;20203;-64
2021/04/16 08:13:56;;;;;;;5.13;2.50;;;8.80;99.90;;;;;;5026027;28;20635;-67
2021/04/16 08:16:26;;;;;;;5.20;2.50;;;8.80;99.90;;;;;;5023787;28;20681;-68
2021/04/16 08:19:22;;;;;;;5.77;2.80;;;8.90;99.90;;;;;;5031537;28;20215;-68
2021/04/16 08:21:51;;;;;;;4.63;2.63;;;8.90;99.90;;;;;;5029620;28;20207;-68
2021/04/16 08:24:25;;;;;;;7.27;2.70;;;9.00;99.90;;;;;;5034856;28;20208;-68
2021/04/16 08:27:30;;;;;;;4.47;2.60;;;9.60;99.90;;;;;;5028257;28;20230;-68
2021/04/16 08:30:03;;;;;;;5.47;2.77;;;9.00;99.90;;;;;;5027037;28;20649;-68
2021/04/16 08:32:36;;;;;;;3.87;2.47;;;9.20;99.90;;;;;;5032891;28;20207;-68
2021/04/16 08:35:06;;;;;;;5.40;2.57;;;9.70;99.90;;;;;;5035148;28;20207;-68
2021/04/16 08:37:39;;;;;;;4.37;2.43;;;9.90;99.90;;;;;;5029432;28;20206;-68
2021/04/16 08:40:11;;;;;;;4.13;2.50;;;10.00;99.90;;;;;;5030632;28;20211;-68
2021/04/16 08:42:38;;;;;;;6.90;2.60;;;9.90;99.90;;;;;;5028130;28;20206;-68
2021/04/16 08:45:10;;;;;;;4.23;2.77;;;9.80;99.90;;;;;;5032846;28;20227;-68
2021/04/16 08:47:46;;;;;;;3.60;2.37;;;9.80;99.90;;;;;;5034509;28;20200;-63
2021/04/16 08:50:13;;;;;;;4.43;2.30;;;9.80;99.90;;;;;;5034817;28;20298;-63
2021/04/16 08:52:44;;;;;;;3.93;2.20;;;10.00;99.90;;;;;;5034817;28;20643;-64
2021/04/16 08:55:19;;;;;;;5.53;1.60;;;9.90;99.90;;;;;;5033101;28;20207;-63
2021/04/16 08:57:51;;;;;;;5.03;2.10;;;9.70;99.90;;;;;;5034387;28;20195;-63
2021/04/16 09:00:22;;;;;;;3.83;1.63;;;9.60;99.90;;;;;;5034581;28;20203;-63
2021/04/16 09:02:51;;;;;;;3.27;1.70;;;9.70;99.90;;;;;;5028388;28;20200;-63
2021/04/16 09:05:20;;;;;;;5.87;2.23;;;9.80;99.90;;;;;;5026437;28;20690;-63
2021/04/16 09:07:50;;;;;;;4.53;1.80;;;10.00;99.90;;;;;;5032583;28;20246;-64
2021/04/16 09:10:43;;;;;;;4.07;1.60;;;10.20;99.90;;;;;;5032470;28;20612;-64
2021/04/16 09:13:29;;;;;;;5.00;2.10;;;10.00;99.90;;;;;;5016581;28;20662;-63
2021/04/16 09:16:30;;;;;;;4.47;1.90;;;10.00;99.90;;;;;;5033634;28;20265;-64
2021/04/16 09:19:35;;;;;;;4.50;2.10;;;10.10;99.90;;;;;;5027833;28;20257;-64
2021/04/16 09:22:34;;;;;;;5.40;2.17;;;10.40;99.90;;;;;;5033822;28;20590;-63
2021/04/16 09:25:01;;;;;;;2.03;1.73;;;10.60;99.90;;;;;;5029499;28;20289;-63
2021/04/16 09:27:38;;;;;;;2.70;2.20;;;10.00;99.90;;;;;;5031224;28;20386;-63
2021/04/16 09:30:34;;;;;;;3.03;1.83;;;10.30;99.90;;;;;;5030093;28;20244;-64
2021/04/16 09:33:18;;;;;;;2.93;1.70;;;10.30;99.90;;;;;;5031568;28;20281;-63
2021/04/16 09:36:00;;;;;;;2.73;2.07;;;10.00;99.90;;;;;;5030042;28;20274;-64
2021/04/16 09:38:54;;;;;;;5.03;2.10;;;10.10;99.90;;;;;;5027877;28;20254;-63
2021/04/16 09:41:37;;;;;;;4.03;2.20;;;10.60;99.90;;;;;;5028689;28;20208;-64
2021/04/16 09:44:40;;;;;;;4.30;2.20;;;10.70;99.90;;;;;;5025227;28;20199;-64
2021/04/16 09:47:07;;;;;;;3.93;2.10;;;10.60;99.90;;;;;;5021170;28;20203;-63
2021/04/16 09:49:40;;;;;;;5.57;2.10;;;10.60;99.90;;;;;;5031049;28;20615;-63
2021/04/16 09:52:46;;;;;;;2.23;1.90;;;11.30;99.90;;;;;;5033364;28;20207;-63
2021/04/16 09:56:01;;;;;;;3.53;2.40;;;10.70;99.90;;;;;;5029397;28;20695;-63
2021/04/16 09:59:07;;;;;;;4.60;2.03;;;11.10;99.90;;;;;;5028864;28;20234;-63
2021/04/16 10:01:34;;;;;;;5.33;2.00;;;11.30;99.90;;;;;;5027651;28;20219;-64
2021/04/16 10:04:03;;;;;;;7.07;2.43;;;11.60;99.90;;;;;;5032895;28;20689;-64
2021/04/16 10:06:35;;;;;;;2.27;2.03;;;11.40;99.90;;;;;;5024987;28;20224;-63
2021/04/16 10:09:25;;;;;;;4.67;2.10;;;11.10;99.90;;;;;;5023422;28;20684;-64
2021/04/16 10:11:54;;;;;;;4.03;2.37;;;11.60;99.90;;;;;;5026859;28;20718;-63
2021/04/16 10:14:30;;;;;;;2.53;2.07;;;10.80;99.90;;;;;;5030414;28;20222;-63
2021/04/16 10:16:58;;;;;;;3.57;2.60;;;10.70;99.90;;;;;;5031042;28;20196;-64
2021/04/16 10:19:28;;;;;;;2.50;2.30;;;11.00;99.90;;;;;;5031028;28;20211;-63
2021/04/16 10:21:55;;;;;;;3.07;2.10;;;11.20;99.90;;;;;;5031355;28;20199;-63
2021/04/16 12:39:46;;;;;;;3.13;2.30;;;12.30;99.90;;;;;;5019326;28;20261;-68
2021/04/16 12:42:13;;;;;;;2.33;2.10;;;12.40;99.90;;;;;;5023914;28;20334;-68
2021/04/16 12:44:42;;;;;;;2.27;2.07;;;13.40;99.90;;;;;;5026838;28;20211;-69
2021/04/16 12:47:13;;;;;;;5.73;2.53;;;13.50;99.90;;;;;;5022760;28;20227;-68
2021/04/16 12:49:40;;;;;;;3.33;2.13;;;13.00;99.90;;;;;;5030878;28;20211;-68
2021/04/16 12:52:08;;;;;;;3.63;2.27;;;12.70;99.90;;;;;;5024580;28;20196;-68
2021/04/16 12:54:37;;;;;;;5.90;2.73;;;12.60;99.90;;;;;;5030025;28;20200;-68
2021/04/16 12:57:05;;;;;;;3.10;2.00;;;12.40;99.90;;;;;;5028394;28;20203;-68
2021/04/16 12:59:31;;;;;;;4.07;2.37;;;12.30;99.90;;;;;;5023259;28;20239;-68
2021/04/16 13:01:58;;;;;;;2.53;2.30;;;12.30;99.90;;;;;;5026347;28;20727;-68
2021/04/16 13:04:26;;;;;;;2.87;2.27;;;12.20;99.90;;;;;;5026301;28;20205;-68
2021/04/16 13:06:59;;;;;;;2.70;2.30;;;12.60;99.90;;;;;;5025425;28;20333;-68
2021/04/16 13:09:26;;;;;;;5.40;2.20;;;12.40;99.90;;;;;;5029966;28;20211;-69
2021/04/16 13:11:52;;;;;;;3.63;2.47;;;13.10;99.90;;;;;;5032806;28;20204;-68
2021/04/16 13:14:19;;;;;;;2.40;2.20;;;12.60;99.90;;;;;;5032327;28;20242;-69
2021/04/16 13:16:46;;;;;;;4.77;2.10;;;12.40;99.90;;;;;;5031196;28;20231;-68
2021/04/16 13:19:24;;;;;;;3.47;2.70;;;12.40;99.90;;;;;;5031411;28;20232;-68
2021/04/16 13:21:55;;;;;;;3.53;2.50;;;12.40;99.90;;;;;;5033101;28;20218;-68
2021/04/16 13:24:22;;;;;;;4.20;2.50;;;12.40;99.90;;;;;;5031961;28;20258;-68
2021/04/16 13:26:48;;;;;;;2.73;2.30;;;12.90;99.90;;;;;;5034160;28;20267;-68
2021/04/16 13:29:15;;;;;;;3.77;2.50;;;12.60;99.90;;;;;;5030951;28;20287;-68
2021/04/16 13:31:41;;;;;;;3.10;2.30;;;12.80;99.90;;;;;;5034371;28;20212;-68
2021/04/16 13:34:09;;;;;;;5.80;2.63;;;12.50;99.90;;;;;;5033717;28;20207;-68
2021/04/16 13:36:36;;;;;;;2.70;2.43;;;12.30;99.90;;;;;;5033768;28;20739;-68
2021/04/16 13:39:05;;;;;;;2.73;2.10;;;12.40;99.90;;;;;;5033929;28;20258;-68
2021/04/16 13:41:33;;;;;;;3.73;2.30;;;12.40;99.90;;;;;;5030954;28;20215;-68
2021/04/16 13:44:00;;;;;;;3.20;2.10;;;12.50;99.90;;;;;;5031022;28;20301;-68
2021/04/16 13:46:30;;;;;;;3.47;2.33;;;12.40;99.90;;;;;;5033104;28;20220;-68
2021/04/16 13:48:57;;;;;;;3.07;2.10;;;12.50;99.90;;;;;;5030111;28;20622;-68
2021/04/16 13:51:24;;;;;;;3.33;2.53;;;12.60;99.90;;;;;;5033663;28;20227;-68
2021/04/16 13:53:51;;;;;;;3.20;2.53;;;12.40;99.90;;;;;;5033532;28;20239;-68
2021/04/16 13:56:18;;;;;;;4.23;2.20;;;12.60;99.90;;;;;;5033684;28;20246;-68
2021/04/16 13:58:45;;;;;;;3.20;1.97;;;12.60;99.90;;;;;;5032121;28;20208;-68
2021/04/16 14:01:13;;;;;;;2.90;2.20;;;12.50;99.90;;;;;;5033072;28;20238;-68
2021/04/16 14:03:41;;;;;;;2.27;2.00;;;12.70;99.90;;;;;;5033093;28;20208;-68
2021/04/16 14:06:11;;;;;;;2.20;2.00;;;12.70;99.90;;;;;;5033071;28;20227;-68
2021/04/16 14:08:40;;;;;;;2.90;2.20;;;13.20;99.90;;;;;;5033407;28;20230;-68
2021/04/16 14:11:08;;;;;;;2.50;2.07;;;12.80;99.90;;;;;;5033311;28;20200;-68
2021/04/16 14:13:35;;;;;;;3.17;2.00;;;13.20;99.90;;;;;;5033037;28;20278;-68
2021/04/16 14:16:06;;;;;;;2.20;2.00;;;13.30;99.90;;;;;;5033055;28;20263;-68
2021/04/16 14:18:36;;;;;;;3.07;1.90;;;12.70;99.90;;;;;;5031001;28;20199;-68
2021/04/16 14:21:04;;;;;;;2.57;1.83;;;12.60;99.90;;;;;;5033350;28;20278;-68
2021/04/16 14:23:31;;;;;;;3.20;1.80;;;13.10;99.90;;;;;;5030727;28;20254;-68
2021/04/16 14:25:57;;;;;;;2.90;1.93;;;13.00;99.90;;;;;;5032776;28;20313;-69
2021/04/16 14:28:25;;;;;;;3.80;2.00;;;13.20;99.90;;;;;;5032459;28;20211;-69
2021/04/16 14:30:54;;;;;;;3.27;2.17;;;13.50;99.90;;;;;;5033114;28;20215;-68
2021/04/16 14:33:28;;;;;;;4.07;2.10;;;13.10;99.90;;;;;;5028190;28;20549;-68
2021/04/16 14:35:56;;;;;;;2.37;1.97;;;13.20;99.90;;;;;;5030574;28;20615;-68
2021/04/16 14:38:23;;;;;;;4.20;2.30;;;13.10;99.90;;;;;;5028152;28;20200;-68
2021/04/16 14:40:50;;;;;;;2.77;1.80;;;12.70;99.90;;;;;;5032648;28;20203;-69
2021/04/16 14:43:17;;;;;;;2.23;1.77;;;12.70;99.90;;;;;;5031067;28;20231;-69
2021/04/16 14:45:46;;;;;;;3.50;2.10;;;12.70;99.90;;;;;;5030218;28;20305;-68
2021/04/16 14:48:13;;;;;;;3.33;1.80;;;12.50;99.90;;;;;;5032346;28;20548;-68
2021/04/16 14:50:40;;;;;;;2.87;1.70;;;12.60;99.90;;;;;;5032432;28;20200;-68
2021/04/16 14:53:14;;;;;;;2.20;1.83;;;12.70;99.90;;;;;;5030920;28;20200;-68
2021/04/16 14:55:41;;;;;;;3.80;1.87;;;12.60;99.90;;;;;;5031203;28;20208;-68
2021/04/16 14:58:09;;;;;;;3.23;1.83;;;12.50;99.90;;;;;;5024347;28;20231;-68
2021/04/16 15:00:37;;;;;;;2.40;2.00;;;12.70;99.90;;;;;;5031914;28;20207;-68
2021/04/16 15:03:04;;;;;;;2.63;2.00;;;12.50;99.90;;;;;;5032511;28;20299;-69
2021/04/16 15:05:31;;;;;;;2.10;1.90;;;12.40;99.90;;;;;;5032134;28;20277;-68
2021/04/16 15:08:02;;;;;;;3.63;1.70;;;12.40;99.90;;;;;;5031736;28;20294;-68
2021/04/16 15:10:31;;;;;;;2.27;2.03;;;12.30;99.90;;;;;;5031595;28;20239;-68
2021/04/16 15:12:59;;;;;;;2.00;1.77;;;12.20;99.90;;;;;;5032629;28;20207;-69
2021/04/16 15:15:35;;;;;;;1.77;1.63;;;12.40;99.90;;;;;;5031954;28;20207;-68
2021/04/16 15:18:02;;;;;;;2.27;1.40;;;12.10;99.90;;;;;;5031990;28;20235;-68
2021/04/16 15:20:32;;;;;;;2.07;1.70;;;12.30;99.90;;;;;;5031618;28;20697;-68
2021/04/16 15:23:00;;;;;;;1.50;1.40;;;12.30;99.90;;;;;;5031260;28;20239;-69